KYKM/YKM METAR and TAF weather

Enter ICAO airport designator
Station Type Date Time Source
KYKM METAR 2020/01/20 21:53 UTC NOAA

KYKM 202153Z 00000KT 10SM CLR 07/00 A3001 RMK AO2 SLP168 T00720000


Station Type Date Time Source
KYKM Decoded METAR 2020/01/20 21:53 UTC NOAA

YAKIMA AIR TERMINAL, WA, United States (KYKM) 46-34N 120-32W 324M
Jan 20, 2020 - 04:53 PM EST / 2020.01.20 2153 UTC
Wind: Calm:0
Visibility: 10 mile(s):0
Sky conditions: clear
Temperature: 45.0 F (7.2 C)
Dew Point: 32.0 F (0.0 C)
Relative Humidity: 60%
Pressure (altimeter): 30.01 in. Hg (1016 hPa)
ob: KYKM 202153Z 00000KT 10SM CLR 07/00 A3001 RMK AO2 SLP168 T00720000
cycle: 22

Station Type Date Time Source
KYKM TAF 2020/01/20 21:58 UTC NOAA

TAF
AMD KYKM 202056Z 2021/2118 VRB04KT P6SM FEW140
FM210700 27003KT 6SM BR OVC080
FM211200 27003KT 2SM BR OVC020
FM211400 28005KT 5SM -SN BR OVC010

Example: see airport list